sensor_id;sensor_type;location;lat;lon;timestamp;pressure;altitude;pressure_sealevel;temperature
68745;BMP180;66104;45.456;11.064;2023-04-24T00:00:44;99759.20;;;18.80
68745;BMP180;66104;45.456;11.064;2023-04-24T00:03:21;99757.20;;;18.80
68745;BMP180;66104;45.456;11.064;2023-04-24T00:05:57;99754.60;;;18.80
68745;BMP180;66104;45.456;11.064;2023-04-24T00:08:34;99751.80;;;18.80
68745;BMP180;66104;45.456;11.064;2023-04-24T00:11:12;99751.40;;;18.80
68745;BMP180;66104;45.456;11.064;2023-04-24T00:13:49;99750.80;;;18.80
68745;BMP180;66104;45.456;11.064;2023-04-24T00:16:27;99748.60;;;18.80
68745;BMP180;66104;45.456;11.064;2023-04-24T00:19:05;99743.20;;;18.80
68745;BMP180;66104;45.456;11.064;2023-04-24T00:21:44;99738.40;;;18.82
68745;BMP180;66104;45.456;11.064;2023-04-24T00:24:25;99738.80;;;18.82
68745;BMP180;66104;45.456;11.064;2023-04-24T00:27:03;99732.60;;;18.82
68745;BMP180;66104;45.456;11.064;2023-04-24T00:29:41;99734.00;;;18.80
68745;BMP180;66104;45.456;11.064;2023-04-24T00:32:18;99724.60;;;18.80
68745;BMP180;66104;45.456;11.064;2023-04-24T00:34:55;99724.40;;;18.80
68745;BMP180;66104;45.456;11.064;2023-04-24T00:37:32;99717.40;;;18.80
68745;BMP180;66104;45.456;11.064;2023-04-24T00:40:12;99717.00;;;18.80
68745;BMP180;66104;45.456;11.064;2023-04-24T00:42:50;99716.80;;;18.80
68745;BMP180;66104;45.456;11.064;2023-04-24T00:45:27;99711.80;;;18.80
68745;BMP180;66104;45.456;11.064;2023-04-24T00:48:05;99709.60;;;18.70
68745;BMP180;66104;45.456;11.064;2023-04-24T00:50:44;99703.60;;;18.70
68745;BMP180;66104;45.456;11.064;2023-04-24T00:53:22;99700.40;;;18.60
68745;BMP180;66104;45.456;11.064;2023-04-24T00:55:58;99703.40;;;18.50
68745;BMP180;66104;45.456;11.064;2023-04-24T00:58:36;99702.40;;;18.40
68745;BMP180;66104;45.456;11.064;2023-04-24T01:01:14;99702.40;;;18.40
68745;BMP180;66104;45.456;11.064;2023-04-24T01:03:52;99698.00;;;18.30
68745;BMP180;66104;45.456;11.064;2023-04-24T01:06:32;99696.00;;;18.28
68745;BMP180;66104;45.456;11.064;2023-04-24T01:09:08;99696.60;;;18.20
68745;BMP180;66104;45.456;11.064;2023-04-24T01:11:45;99697.40;;;18.20
68745;BMP180;66104;45.456;11.064;2023-04-24T01:14:23;99695.20;;;18.20
68745;BMP180;66104;45.456;11.064;2023-04-24T01:17:00;99689.60;;;18.30
68745;BMP180;66104;45.456;11.064;2023-04-24T01:19:37;99690.40;;;18.30
68745;BMP180;66104;45.456;11.064;2023-04-24T01:22:15;99682.80;;;18.30
68745;BMP180;66104;45.456;11.064;2023-04-24T01:24:53;99679.20;;;18.32
68745;BMP180;66104;45.456;11.064;2023-04-24T01:27:30;99672.60;;;18.40
68745;BMP180;66104;45.456;11.064;2023-04-24T01:30:13;99669.60;;;18.40
68745;BMP180;66104;45.456;11.064;2023-04-24T01:32:52;99665.60;;;18.40
68745;BMP180;66104;45.456;11.064;2023-04-24T01:35:28;99663.20;;;18.40
68745;BMP180;66104;45.456;11.064;2023-04-24T01:38:05;99659.20;;;18.40
68745;BMP180;66104;45.456;11.064;2023-04-24T01:40:42;99655.40;;;18.40
68745;BMP180;66104;45.456;11.064;2023-04-24T01:43:20;99652.20;;;18.40
68745;BMP180;66104;45.456;11.064;2023-04-24T01:45:57;99643.40;;;18.40
68745;BMP180;66104;45.456;11.064;2023-04-24T01:48:33;99643.40;;;18.40
68745;BMP180;66104;45.456;11.064;2023-04-24T01:51:10;99642.60;;;18.40
68745;BMP180;66104;45.456;11.064;2023-04-24T01:53:47;99640.60;;;18.30
68745;BMP180;66104;45.456;11.064;2023-04-24T01:56:25;99642.20;;;18.30
68745;BMP180;66104;45.456;11.064;2023-04-24T01:59:05;99637.20;;;18.30
68745;BMP180;66104;45.456;11.064;2023-04-24T02:01:42;99636.60;;;18.22
68745;BMP180;66104;45.456;11.064;2023-04-24T02:04:19;99640.20;;;18.20
68745;BMP180;66104;45.456;11.064;2023-04-24T02:06:55;99638.60;;;18.16
68745;BMP180;66104;45.456;11.064;2023-04-24T02:09:32;99630.00;;;18.08
68745;BMP180;66104;45.456;11.064;2023-04-24T02:12:09;99637.00;;;17.90
68745;BMP180;66104;45.456;11.064;2023-04-24T02:14:46;99630.60;;;17.70
68745;BMP180;66104;45.456;11.064;2023-04-24T02:17:23;99633.40;;;17.42
68745;BMP180;66104;45.456;11.064;2023-04-24T02:19:59;99640.40;;;17.20
68745;BMP180;66104;45.456;11.064;2023-04-24T02:22:36;99642.60;;;17.00
68745;BMP180;66104;45.456;11.064;2023-04-24T02:25:13;99638.60;;;16.90
68745;BMP180;66104;45.456;11.064;2023-04-24T02:27:50;99643.20;;;16.80
68745;BMP180;66104;45.456;11.064;2023-04-24T02:30:26;99636.20;;;16.80
68745;BMP180;66104;45.456;11.064;2023-04-24T02:33:03;99637.60;;;16.70
68745;BMP180;66104;45.456;11.064;2023-04-24T02:35:41;99637.40;;;16.60
68745;BMP180;66104;45.456;11.064;2023-04-24T02:38:17;99648.60;;;16.48
68745;BMP180;66104;45.456;11.064;2023-04-24T02:40:54;99634.60;;;16.32
68745;BMP180;66104;45.456;11.064;2023-04-24T02:43:32;99626.40;;;16.20
68745;BMP180;66104;45.456;11.064;2023-04-24T02:46:10;99637.20;;;16.10
68745;BMP180;66104;45.456;11.064;2023-04-24T02:48:46;99631.40;;;16.00
68745;BMP180;66104;45.456;11.064;2023-04-24T02:51:23;99625.80;;;15.92
68745;BMP180;66104;45.456;11.064;2023-04-24T02:53:59;99622.60;;;15.90
68745;BMP180;66104;45.456;11.064;2023-04-24T02:56:36;99617.80;;;15.90
68745;BMP180;66104;45.456;11.064;2023-04-24T02:59:12;99615.00;;;15.90
68745;BMP180;66104;45.456;11.064;2023-04-24T03:01:49;99612.00;;;16.00
68745;BMP180;66104;45.456;11.064;2023-04-24T03:04:26;99615.00;;;16.10
68745;BMP180;66104;45.456;11.064;2023-04-24T03:07:04;99605.00;;;16.12
68745;BMP180;66104;45.456;11.064;2023-04-24T03:09:43;99599.40;;;16.20
68745;BMP180;66104;45.456;11.064;2023-04-24T03:12:21;99598.40;;;16.24
68745;BMP180;66104;45.456;11.064;2023-04-24T03:14:57;99604.20;;;16.30
68745;BMP180;66104;45.456;11.064;2023-04-24T03:17:34;99607.40;;;16.38
68745;BMP180;66104;45.456;11.064;2023-04-24T03:20:14;99611.00;;;16.40
68745;BMP180;66104;45.456;11.064;2023-04-24T03:22:51;99608.80;;;16.40
68745;BMP180;66104;45.456;11.064;2023-04-24T03:25:28;99612.20;;;16.40
68745;BMP180;66104;45.456;11.064;2023-04-24T03:28:05;99613.80;;;16.40
68745;BMP180;66104;45.456;11.064;2023-04-24T03:30:47;99608.60;;;16.40
68745;BMP180;66104;45.456;11.064;2023-04-24T03:33:24;99608.60;;;16.40
68745;BMP180;66104;45.456;11.064;2023-04-24T03:36:06;99609.00;;;16.40
68745;BMP180;66104;45.456;11.064;2023-04-24T03:38:45;99607.40;;;16.40
68745;BMP180;66104;45.456;11.064;2023-04-24T03:41:28;99608.80;;;16.30
68745;BMP180;66104;45.456;11.064;2023-04-24T03:44:14;99609.60;;;16.32
68745;BMP180;66104;45.456;11.064;2023-04-24T03:46:51;99614.20;;;16.40
68745;BMP180;66104;45.456;11.064;2023-04-24T03:49:28;99616.00;;;16.40
68745;BMP180;66104;45.456;11.064;2023-04-24T03:52:04;99615.80;;;16.40
68745;BMP180;66104;45.456;11.064;2023-04-24T03:54:41;99613.60;;;16.40
68745;BMP180;66104;45.456;11.064;2023-04-24T03:57:18;99611.80;;;16.40
68745;BMP180;66104;45.456;11.064;2023-04-24T04:00:08;99614.40;;;16.44
68745;BMP180;66104;45.456;11.064;2023-04-24T04:02:49;99607.40;;;16.50
68745;BMP180;66104;45.456;11.064;2023-04-24T04:05:26;99603.40;;;16.50
68745;BMP180;66104;45.456;11.064;2023-04-24T04:08:03;99601.20;;;16.50
68745;BMP180;66104;45.456;11.064;2023-04-24T04:10:40;99604.80;;;16.50
68745;BMP180;66104;45.456;11.064;2023-04-24T04:13:16;99603.80;;;16.50
68745;BMP180;66104;45.456;11.064;2023-04-24T04:15:53;99604.20;;;16.50
68745;BMP180;66104;45.456;11.064;2023-04-24T04:18:31;99612.00;;;16.50
68745;BMP180;66104;45.456;11.064;2023-04-24T04:21:08;99608.00;;;16.50
68745;BMP180;66104;45.456;11.064;2023-04-24T04:23:45;99606.00;;;16.50
68745;BMP180;66104;45.456;11.064;2023-04-24T04:26:28;99609.60;;;16.44
68745;BMP180;66104;45.456;11.064;2023-04-24T04:29:10;99614.20;;;16.40
68745;BMP180;66104;45.456;11.064;2023-04-24T04:31:51;99616.40;;;16.38
68745;BMP180;66104;45.456;11.064;2023-04-24T04:34:28;99623.00;;;16.30
68745;BMP180;66104;45.456;11.064;2023-04-24T04:37:06;99629.40;;;16.30
68745;BMP180;66104;45.456;11.064;2023-04-24T04:40:05;99638.80;;;16.30
68745;BMP180;66104;45.456;11.064;2023-04-24T04:42:52;99637.00;;;16.20
68745;BMP180;66104;45.456;11.064;2023-04-24T04:45:29;99648.20;;;16.10
68745;BMP180;66104;45.456;11.064;2023-04-24T04:48:24;99646.20;;;16.00
68745;BMP180;66104;45.456;11.064;2023-04-24T04:51:04;99644.00;;;15.90
68745;BMP180;66104;45.456;11.064;2023-04-24T04:53:41;99650.20;;;15.90
68745;BMP180;66104;45.456;11.064;2023-04-24T04:56:18;99652.40;;;15.80
68745;BMP180;66104;45.456;11.064;2023-04-24T04:58:55;99658.20;;;15.80
68745;BMP180;66104;45.456;11.064;2023-04-24T05:01:33;99666.80;;;15.80
68745;BMP180;66104;45.456;11.064;2023-04-24T05:04:10;99673.60;;;15.80
68745;BMP180;66104;45.456;11.064;2023-04-24T05:06:47;99680.40;;;15.80
68745;BMP180;66104;45.456;11.064;2023-04-24T05:09:26;99689.00;;;15.80
68745;BMP180;66104;45.456;11.064;2023-04-24T05:12:09;99693.80;;;15.70
68745;BMP180;66104;45.456;11.064;2023-04-24T05:14:50;99697.20;;;15.60
68745;BMP180;66104;45.456;11.064;2023-04-24T05:17:27;99689.00;;;15.54
68745;BMP180;66104;45.456;11.064;2023-04-24T05:20:06;99661.60;;;15.50
68745;BMP180;66104;45.456;11.064;2023-04-24T05:22:44;99644.00;;;15.38
68745;BMP180;66104;45.456;11.064;2023-04-24T05:25:22;99646.40;;;15.20
68745;BMP180;66104;45.456;11.064;2023-04-24T05:28:04;99668.60;;;15.16
68745;BMP180;66104;45.456;11.064;2023-04-24T05:30:40;99662.40;;;15.10
68745;BMP180;66104;45.456;11.064;2023-04-24T05:33:17;99663.40;;;15.10
68745;BMP180;66104;45.456;11.064;2023-04-24T05:35:53;99663.20;;;15.10
68745;BMP180;66104;45.456;11.064;2023-04-24T05:38:31;99656.80;;;15.00
68745;BMP180;66104;45.456;11.064;2023-04-24T05:41:08;99646.20;;;14.90
68745;BMP180;66104;45.456;11.064;2023-04-24T05:43:44;99641.40;;;14.90
68745;BMP180;66104;45.456;11.064;2023-04-24T05:46:21;99640.40;;;14.80
68745;BMP180;66104;45.456;11.064;2023-04-24T05:48:58;99638.20;;;14.70
68745;BMP180;66104;45.456;11.064;2023-04-24T05:51:34;99636.20;;;14.70
68745;BMP180;66104;45.456;11.064;2023-04-24T05:54:11;99623.60;;;14.70
68745;BMP180;66104;45.456;11.064;2023-04-24T05:56:48;99621.00;;;14.60
68745;BMP180;66104;45.456;11.064;2023-04-24T05:59:36;99611.60;;;14.60
68745;BMP180;66104;45.456;11.064;2023-04-24T06:02:13;99613.20;;;14.60
68745;BMP180;66104;45.456;11.064;2023-04-24T06:04:51;99611.40;;;14.60
68745;BMP180;66104;45.456;11.064;2023-04-24T06:07:28;99615.80;;;14.64
68745;BMP180;66104;45.456;11.064;2023-04-24T06:10:10;99616.00;;;14.70
68745;BMP180;66104;45.456;11.064;2023-04-24T06:12:48;99612.40;;;14.72
68745;BMP180;66104;45.456;11.064;2023-04-24T06:15:25;99612.40;;;14.80
68745;BMP180;66104;45.456;11.064;2023-04-24T06:18:04;99624.80;;;14.90
68745;BMP180;66104;45.456;11.064;2023-04-24T06:20:42;99636.20;;;15.00
68745;BMP180;66104;45.456;11.064;2023-04-24T06:23:18;99645.00;;;15.00
68745;BMP180;66104;45.456;11.064;2023-04-24T06:25:54;99645.20;;;15.10
68745;BMP180;66104;45.456;11.064;2023-04-24T06:28:30;99641.60;;;15.10
68745;BMP180;66104;45.456;11.064;2023-04-24T06:31:07;99640.00;;;15.16
68745;BMP180;66104;45.456;11.064;2023-04-24T06:33:45;99641.00;;;15.20
68745;BMP180;66104;45.456;11.064;2023-04-24T06:36:22;99642.40;;;15.30
68745;BMP180;66104;45.456;11.064;2023-04-24T06:38:58;99642.00;;;15.32
68745;BMP180;66104;45.456;11.064;2023-04-24T06:41:35;99645.40;;;15.40
68745;BMP180;66104;45.456;11.064;2023-04-24T06:44:12;99647.60;;;15.40
68745;BMP180;66104;45.456;11.064;2023-04-24T06:46:51;99657.00;;;15.40
68745;BMP180;66104;45.456;11.064;2023-04-24T06:49:28;99662.40;;;15.42
68745;BMP180;66104;45.456;11.064;2023-04-24T06:52:04;99667.00;;;15.50
68745;BMP180;66104;45.456;11.064;2023-04-24T06:54:43;99667.00;;;15.50
68745;BMP180;66104;45.456;11.064;2023-04-24T06:57:20;99652.20;;;15.50
68745;BMP180;66104;45.456;11.064;2023-04-24T06:59:57;99643.00;;;15.50
68745;BMP180;66104;45.456;11.064;2023-04-24T07:02:33;99636.60;;;15.60
68745;BMP180;66104;45.456;11.064;2023-04-24T07:05:11;99631.60;;;15.68
68745;BMP180;66104;45.456;11.064;2023-04-24T07:07:49;99630.60;;;15.72
68745;BMP180;66104;45.456;11.064;2023-04-24T07:10:27;99628.20;;;15.80
68745;BMP180;66104;45.456;11.064;2023-04-24T07:13:04;99620.80;;;15.90
68745;BMP180;66104;45.456;11.064;2023-04-24T07:15:40;99620.60;;;16.00
68745;BMP180;66104;45.456;11.064;2023-04-24T07:18:17;99620.20;;;16.00
68745;BMP180;66104;45.456;11.064;2023-04-24T07:20:54;99611.20;;;16.10
68745;BMP180;66104;45.456;11.064;2023-04-24T07:23:32;99609.00;;;16.10
68745;BMP180;66104;45.456;11.064;2023-04-24T07:26:08;99610.20;;;16.10
68745;BMP180;66104;45.456;11.064;2023-04-24T07:28:46;99613.40;;;16.00
68745;BMP180;66104;45.456;11.064;2023-04-24T07:31:24;99617.40;;;15.92
68745;BMP180;66104;45.456;11.064;2023-04-24T07:34:01;99615.60;;;15.90
68745;BMP180;66104;45.456;11.064;2023-04-24T07:36:37;99611.40;;;15.90
68745;BMP180;66104;45.456;11.064;2023-04-24T07:39:14;99618.20;;;15.90
68745;BMP180;66104;45.456;11.064;2023-04-24T07:41:51;99627.00;;;15.90
68745;BMP180;66104;45.456;11.064;2023-04-24T07:44:28;99620.40;;;15.92
68745;BMP180;66104;45.456;11.064;2023-04-24T07:47:08;99622.00;;;16.00
68745;BMP180;66104;45.456;11.064;2023-04-24T07:49:45;99626.80;;;16.00
68745;BMP180;66104;45.456;11.064;2023-04-24T07:52:26;99625.00;;;16.00
68745;BMP180;66104;45.456;11.064;2023-04-24T07:55:04;99622.20;;;16.00
68745;BMP180;66104;45.456;11.064;2023-04-24T07:57:41;99622.40;;;16.10
68745;BMP180;66104;45.456;11.064;2023-04-24T08:00:20;99621.60;;;16.10
68745;BMP180;66104;45.456;11.064;2023-04-24T08:02:58;99626.40;;;16.20
68745;BMP180;66104;45.456;11.064;2023-04-24T08:05:35;99636.60;;;16.30
68745;BMP180;66104;45.456;11.064;2023-04-24T08:08:13;99638.40;;;16.40
68745;BMP180;66104;45.456;11.064;2023-04-24T08:10:51;99630.40;;;16.50
68745;BMP180;66104;45.456;11.064;2023-04-24T08:13:28;99628.20;;;16.54
68745;BMP180;66104;45.456;11.064;2023-04-24T08:16:06;99630.40;;;16.60
68745;BMP180;66104;45.456;11.064;2023-04-24T08:18:43;99629.40;;;16.70
68745;BMP180;66104;45.456;11.064;2023-04-24T08:21:22;99628.80;;;16.80
68745;BMP180;66104;45.456;11.064;2023-04-24T08:24:00;99627.40;;;16.82
68745;BMP180;66104;45.456;11.064;2023-04-24T08:26:38;99627.80;;;16.90
68745;BMP180;66104;45.456;11.064;2023-04-24T08:29:16;99623.80;;;16.90
68745;BMP180;66104;45.456;11.064;2023-04-24T08:31:53;99626.60;;;16.94
68745;BMP180;66104;45.456;11.064;2023-04-24T08:34:30;99620.80;;;16.90
68745;BMP180;66104;45.456;11.064;2023-04-24T08:37:06;99619.60;;;16.90
68745;BMP180;66104;45.456;11.064;2023-04-24T08:39:44;99620.20;;;16.80
68745;BMP180;66104;45.456;11.064;2023-04-24T08:42:22;99619.00;;;16.76
68745;BMP180;66104;45.456;11.064;2023-04-24T08:44:59;99613.20;;;16.70
68745;BMP180;66104;45.456;11.064;2023-04-24T08:47:37;99612.20;;;16.70
68745;BMP180;66104;45.456;11.064;2023-04-24T08:50:15;99614.80;;;16.70
68745;BMP180;66104;45.456;11.064;2023-04-24T08:52:54;99616.60;;;16.70
68745;BMP180;66104;45.456;11.064;2023-04-24T08:55:32;99623.00;;;16.70
68745;BMP180;66104;45.456;11.064;2023-04-24T08:58:10;99626.00;;;16.74
68745;BMP180;66104;45.456;11.064;2023-04-24T09:00:48;99633.80;;;16.80
68745;BMP180;66104;45.456;11.064;2023-04-24T09:03:25;99640.80;;;16.88
68745;BMP180;66104;45.456;11.064;2023-04-24T09:06:04;99646.80;;;16.90
68745;BMP180;66104;45.456;11.064;2023-04-24T09:08:44;99647.00;;;16.90
68745;BMP180;66104;45.456;11.064;2023-04-24T09:11:23;99652.40;;;17.00
68745;BMP180;66104;45.456;11.064;2023-04-24T09:14:02;99656.20;;;17.10
68745;BMP180;66104;45.456;11.064;2023-04-24T09:16:40;99664.00;;;17.16
68745;BMP180;66104;45.456;11.064;2023-04-24T09:19:17;99665.40;;;17.20
68745;BMP180;66104;45.456;11.064;2023-04-24T09:21:57;99669.40;;;17.20
68745;BMP180;66104;45.456;11.064;2023-04-24T09:24:34;99671.80;;;17.30
68745;BMP180;66104;45.456;11.064;2023-04-24T09:27:13;99673.60;;;17.34
68745;BMP180;66104;45.456;11.064;2023-04-24T09:30:00;99674.80;;;17.40
68745;BMP180;66104;45.456;11.064;2023-04-24T09:32:38;99669.00;;;17.50
68745;BMP180;66104;45.456;11.064;2023-04-24T09:35:17;99666.00;;;17.54
68745;BMP180;66104;45.456;11.064;2023-04-24T09:37:54;99661.00;;;17.60
68745;BMP180;66104;45.456;11.064;2023-04-24T09:40:35;99650.60;;;17.70
68745;BMP180;66104;45.456;11.064;2023-04-24T09:43:15;99645.40;;;17.80
68745;BMP180;66104;45.456;11.064;2023-04-24T09:46:04;99640.40;;;17.90
68745;BMP180;66104;45.456;11.064;2023-04-24T09:48:41;99635.00;;;18.00
68745;BMP180;66104;45.456;11.064;2023-04-24T09:51:17;99635.00;;;18.10
68745;BMP180;66104;45.456;11.064;2023-04-24T09:54:00;99635.80;;;18.20
68745;BMP180;66104;45.456;11.064;2023-04-24T09:56:39;99639.00;;;18.30
68745;BMP180;66104;45.456;11.064;2023-04-24T09:59:19;99636.40;;;18.46
68745;BMP180;66104;45.456;11.064;2023-04-24T10:01:56;99632.20;;;18.58
68745;BMP180;66104;45.456;11.064;2023-04-24T10:04:34;99636.20;;;18.60
68745;BMP180;66104;45.456;11.064;2023-04-24T10:07:13;99631.20;;;18.70
68745;BMP180;66104;45.456;11.064;2023-04-24T10:09:50;99631.80;;;18.70
68745;BMP180;66104;45.456;11.064;2023-04-24T10:12:28;99631.20;;;18.80
68745;BMP180;66104;45.456;11.064;2023-04-24T10:15:10;99633.40;;;18.80
68745;BMP180;66104;45.456;11.064;2023-04-24T10:17:49;99642.00;;;18.84
68745;BMP180;66104;45.456;11.064;2023-04-24T10:20:30;99636.80;;;18.90
68745;BMP180;66104;45.456;11.064;2023-04-24T10:23:08;99642.20;;;18.98
68745;BMP180;66104;45.456;11.064;2023-04-24T10:25:50;99640.80;;;19.00
68745;BMP180;66104;45.456;11.064;2023-04-24T10:28:30;99639.80;;;19.00
68745;BMP180;66104;45.456;11.064;2023-04-24T10:31:05;99644.20;;;19.06
68745;BMP180;66104;45.456;11.064;2023-04-24T10:33:44;99650.80;;;19.10
68745;BMP180;66104;45.456;11.064;2023-04-24T10:36:25;99648.40;;;19.20
68745;BMP180;66104;45.456;11.064;2023-04-24T10:39:06;99652.20;;;19.20
68745;BMP180;66104;45.456;11.064;2023-04-24T10:41:45;99653.40;;;19.30
68745;BMP180;66104;45.456;11.064;2023-04-24T10:44:24;99655.40;;;19.30
68745;BMP180;66104;45.456;11.064;2023-04-24T10:47:00;99658.40;;;19.40
68745;BMP180;66104;45.456;11.064;2023-04-24T10:49:38;99671.80;;;19.50
68745;BMP180;66104;45.456;11.064;2023-04-24T10:52:16;99668.00;;;19.50
68745;BMP180;66104;45.456;11.064;2023-04-24T10:54:53;99669.40;;;19.60
68745;BMP180;66104;45.456;11.064;2023-04-24T10:57:31;99666.80;;;19.70
68745;BMP180;66104;45.456;11.064;2023-04-24T11:00:28;99668.80;;;19.70
68745;BMP180;66104;45.456;11.064;2023-04-24T11:03:06;99669.60;;;19.80
68745;BMP180;66104;45.456;11.064;2023-04-24T11:05:58;99662.80;;;19.90
68745;BMP180;66104;45.456;11.064;2023-04-24T11:08:40;99668.00;;;20.00
68745;BMP180;66104;45.456;11.064;2023-04-24T11:11:19;99674.60;;;20.10
68745;BMP180;66104;45.456;11.064;2023-04-24T11:14:20;99670.40;;;20.20
68745;BMP180;66104;45.456;11.064;2023-04-24T11:16:59;99673.60;;;20.22
68745;BMP180;66104;45.456;11.064;2023-04-24T11:19:38;99669.00;;;20.30
68745;BMP180;66104;45.456;11.064;2023-04-24T11:22:20;99667.00;;;20.40
68745;BMP180;66104;45.456;11.064;2023-04-24T11:25:02;99663.80;;;20.50
68745;BMP180;66104;45.456;11.064;2023-04-24T11:27:46;99661.80;;;20.54
68745;BMP180;66104;45.456;11.064;2023-04-24T11:30:24;99665.00;;;20.60
68745;BMP180;66104;45.456;11.064;2023-04-24T11:33:08;99670.60;;;20.68
68745;BMP180;66104;45.456;11.064;2023-04-24T11:35:46;99668.40;;;20.70
68745;BMP180;66104;45.456;11.064;2023-04-24T11:38:24;99669.60;;;20.70
68745;BMP180;66104;45.456;11.064;2023-04-24T11:41:03;99667.80;;;20.70
68745;BMP180;66104;45.456;11.064;2023-04-24T11:43:41;99664.40;;;20.72
68745;BMP180;66104;45.456;11.064;2023-04-24T11:46:23;99662.60;;;20.80
68745;BMP180;66104;45.456;11.064;2023-04-24T11:49:00;99657.80;;;20.90
68745;BMP180;66104;45.456;11.064;2023-04-24T11:51:37;99652.60;;;21.00
68745;BMP180;66104;45.456;11.064;2023-04-24T11:54:26;99650.40;;;21.10
68745;BMP180;66104;45.456;11.064;2023-04-24T11:57:05;99653.80;;;21.20
68745;BMP180;66104;45.456;11.064;2023-04-24T11:59:43;99660.00;;;21.30
68745;BMP180;66104;45.456;11.064;2023-04-24T12:02:27;99660.80;;;21.30
68745;BMP180;66104;45.456;11.064;2023-04-24T12:05:05;99662.80;;;21.40
68745;BMP180;66104;45.456;11.064;2023-04-24T12:07:46;99658.60;;;21.42
68745;BMP180;66104;45.456;11.064;2023-04-24T12:10:28;99656.80;;;21.50
68745;BMP180;66104;45.456;11.064;2023-04-24T12:13:09;99656.20;;;21.60
68745;BMP180;66104;45.456;11.064;2023-04-24T12:15:47;99657.80;;;21.62
68745;BMP180;66104;45.456;11.064;2023-04-24T12:18:26;99661.40;;;21.70
68745;BMP180;66104;45.456;11.064;2023-04-24T12:21:21;99664.00;;;21.70
68745;BMP180;66104;45.456;11.064;2023-04-24T12:24:00;99663.40;;;21.70
68745;BMP180;66104;45.456;11.064;2023-04-24T12:26:37;99667.00;;;21.70
68745;BMP180;66104;45.456;11.064;2023-04-24T12:29:24;99664.80;;;21.70
68745;BMP180;66104;45.456;11.064;2023-04-24T12:32:01;99664.00;;;21.70
68745;BMP180;66104;45.456;11.064;2023-04-24T12:34:37;99662.60;;;21.80
68745;BMP180;66104;45.456;11.064;2023-04-24T12:37:16;99658.00;;;21.80
68745;BMP180;66104;45.456;11.064;2023-04-24T12:40:09;99655.80;;;21.76
68745;BMP180;66104;45.456;11.064;2023-04-24T12:42:50;99655.40;;;21.80
68745;BMP180;66104;45.456;11.064;2023-04-24T12:45:29;99649.00;;;21.80
68745;BMP180;66104;45.456;11.064;2023-04-24T12:48:07;99647.20;;;21.80
68745;BMP180;66104;45.456;11.064;2023-04-24T12:50:46;99646.00;;;21.84
68745;BMP180;66104;45.456;11.064;2023-04-24T12:53:23;99647.80;;;21.90
68745;BMP180;66104;45.456;11.064;2023-04-24T12:56:00;99638.40;;;21.94
68745;BMP180;66104;45.456;11.064;2023-04-24T12:58:37;99635.60;;;22.00
68745;BMP180;66104;45.456;11.064;2023-04-24T13:01:13;99633.80;;;22.10
68745;BMP180;66104;45.456;11.064;2023-04-24T13:03:49;99628.20;;;22.20
68745;BMP180;66104;45.456;11.064;2023-04-24T13:06:27;99631.40;;;22.30
68745;BMP180;66104;45.456;11.064;2023-04-24T13:09:04;99625.40;;;22.30
68745;BMP180;66104;45.456;11.064;2023-04-24T13:11:41;99618.60;;;22.40
68745;BMP180;66104;45.456;11.064;2023-04-24T13:14:17;99613.20;;;22.40
68745;BMP180;66104;45.456;11.064;2023-04-24T13:16:56;99609.60;;;22.50
68745;BMP180;66104;45.456;11.064;2023-04-24T13:19:37;99608.00;;;22.56
68745;BMP180;66104;45.456;11.064;2023-04-24T13:22:16;99605.40;;;22.60
68745;BMP180;66104;45.456;11.064;2023-04-24T13:24:53;99600.60;;;22.70
68745;BMP180;66104;45.456;11.064;2023-04-24T13:27:30;99596.00;;;22.80
68745;BMP180;66104;45.456;11.064;2023-04-24T13:30:12;99590.60;;;22.90
68745;BMP180;66104;45.456;11.064;2023-04-24T13:32:51;99592.20;;;22.90
68745;BMP180;66104;45.456;11.064;2023-04-24T13:35:27;99588.60;;;23.00
68745;BMP180;66104;45.456;11.064;2023-04-24T13:38:03;99581.40;;;23.10
68745;BMP180;66104;45.456;11.064;2023-04-24T13:40:43;99591.40;;;23.20
68745;BMP180;66104;45.456;11.064;2023-04-24T13:43:19;99588.40;;;23.20
68745;BMP180;66104;45.456;11.064;2023-04-24T13:45:57;99581.40;;;23.30
68745;BMP180;66104;45.456;11.064;2023-04-24T13:48:36;99577.80;;;23.32
68745;BMP180;66104;45.456;11.064;2023-04-24T13:51:13;99569.80;;;23.40
68745;BMP180;66104;45.456;11.064;2023-04-24T13:53:52;99570.40;;;23.40
68745;BMP180;66104;45.456;11.064;2023-04-24T13:56:29;99572.00;;;23.40
68745;BMP180;66104;45.456;11.064;2023-04-24T13:59:07;99566.20;;;23.50
68745;BMP180;66104;45.456;11.064;2023-04-24T14:01:44;99562.60;;;23.50
68745;BMP180;66104;45.456;11.064;2023-04-24T14:04:22;99564.60;;;23.50
68745;BMP180;66104;45.456;11.064;2023-04-24T14:06:59;99566.20;;;23.50
68745;BMP180;66104;45.456;11.064;2023-04-24T14:09:36;99570.60;;;23.56
68745;BMP180;66104;45.456;11.064;2023-04-24T14:12:13;99575.20;;;23.60
68745;BMP180;66104;45.456;11.064;2023-04-24T14:14:52;99580.60;;;23.50
68745;BMP180;66104;45.456;11.064;2023-04-24T14:17:30;99578.00;;;23.50
68745;BMP180;66104;45.456;11.064;2023-04-24T14:20:09;99583.20;;;23.60
68745;BMP180;66104;45.456;11.064;2023-04-24T14:22:45;99581.20;;;23.60
68745;BMP180;66104;45.456;11.064;2023-04-24T14:25:24;99581.60;;;23.70
68745;BMP180;66104;45.456;11.064;2023-04-24T14:28:01;99585.00;;;23.70
68745;BMP180;66104;45.456;11.064;2023-04-24T14:30:39;99584.00;;;23.70
68745;BMP180;66104;45.456;11.064;2023-04-24T14:33:17;99581.20;;;23.70
68745;BMP180;66104;45.456;11.064;2023-04-24T14:35:54;99583.00;;;23.80
68745;BMP180;66104;45.456;11.064;2023-04-24T14:38:32;99581.60;;;23.80
68745;BMP180;66104;45.456;11.064;2023-04-24T14:41:09;99580.60;;;23.82
68745;BMP180;66104;45.456;11.064;2023-04-24T14:43:47;99583.80;;;23.80
68745;BMP180;66104;45.456;11.064;2023-04-24T14:46:24;99582.60;;;23.70
68745;BMP180;66104;45.456;11.064;2023-04-24T14:49:01;99581.00;;;23.60
68745;BMP180;66104;45.456;11.064;2023-04-24T14:51:38;99585.60;;;23.40
68745;BMP180;66104;45.456;11.064;2023-04-24T14:54:15;99588.00;;;23.30
68745;BMP180;66104;45.456;11.064;2023-04-24T14:56:53;99593.00;;;23.20
68745;BMP180;66104;45.456;11.064;2023-04-24T14:59:31;99592.40;;;23.10